sensor_id;sensor_type;location;lat;lon;timestamp;temperature;humidity
56240;DHT22;42154;51.992;5.896;2024-02-28T00:01:24;4.60;99.90
56240;DHT22;42154;51.992;5.896;2024-02-28T00:03:50;4.50;99.90
56240;DHT22;42154;51.992;5.896;2024-02-28T00:06:17;4.50;99.90
56240;DHT22;42154;51.992;5.896;2024-02-28T00:08:43;4.60;99.90
56240;DHT22;42154;51.992;5.896;2024-02-28T00:11:09;4.50;99.90
56240;DHT22;42154;51.992;5.896;2024-02-28T00:13:35;4.50;99.90
56240;DHT22;42154;51.992;5.896;2024-02-28T00:16:01;4.50;99.90
56240;DHT22;42154;51.992;5.896;2024-02-28T00:18:27;4.50;99.90
56240;DHT22;42154;51.992;5.896;2024-02-28T00:20:52;4.50;99.90
56240;DHT22;42154;51.992;5.896;2024-02-28T00:23:19;4.40;99.90
56240;DHT22;42154;51.992;5.896;2024-02-28T00:25:46;4.50;99.90
56240;DHT22;42154;51.992;5.896;2024-02-28T00:28:12;4.40;99.90
56240;DHT22;42154;51.992;5.896;2024-02-28T00:30:37;4.50;99.90
56240;DHT22;42154;51.992;5.896;2024-02-28T00:33:03;4.40;99.90
56240;DHT22;42154;51.992;5.896;2024-02-28T00:35:31;4.50;99.90
56240;DHT22;42154;51.992;5.896;2024-02-28T00:37:58;4.40;99.90
56240;DHT22;42154;51.992;5.896;2024-02-28T00:40:24;4.50;99.90
56240;DHT22;42154;51.992;5.896;2024-02-28T00:42:51;4.60;99.90
56240;DHT22;42154;51.992;5.896;2024-02-28T00:45:16;4.50;99.90
56240;DHT22;42154;51.992;5.896;2024-02-28T00:47:43;4.50;99.90
56240;DHT22;42154;51.992;5.896;2024-02-28T00:50:09;4.50;99.90
56240;DHT22;42154;51.992;5.896;2024-02-28T00:52:35;4.40;99.90
56240;DHT22;42154;51.992;5.896;2024-02-28T00:55:01;4.50;99.90
56240;DHT22;42154;51.992;5.896;2024-02-28T00:57:26;4.50;99.90
56240;DHT22;42154;51.992;5.896;2024-02-28T00:59:52;4.50;99.90
56240;DHT22;42154;51.992;5.896;2024-02-28T01:02:20;4.50;99.90
56240;DHT22;42154;51.992;5.896;2024-02-28T01:04:47;4.50;99.90
56240;DHT22;42154;51.992;5.896;2024-02-28T01:07:12;4.50;99.90
56240;DHT22;42154;51.992;5.896;2024-02-28T01:09:38;4.50;99.90
56240;DHT22;42154;51.992;5.896;2024-02-28T01:12:04;4.50;99.90
56240;DHT22;42154;51.992;5.896;2024-02-28T01:14:30;4.50;99.90
56240;DHT22;42154;51.992;5.896;2024-02-28T01:16:56;4.50;99.90
56240;DHT22;42154;51.992;5.896;2024-02-28T01:19:21;4.50;99.90
56240;DHT22;42154;51.992;5.896;2024-02-28T01:21:47;4.50;99.90
56240;DHT22;42154;51.992;5.896;2024-02-28T01:24:13;4.50;99.90
56240;DHT22;42154;51.992;5.896;2024-02-28T01:26:39;4.50;99.90
56240;DHT22;42154;51.992;5.896;2024-02-28T01:29:06;4.60;99.90
56240;DHT22;42154;51.992;5.896;2024-02-28T01:31:31;4.60;99.90
56240;DHT22;42154;51.992;5.896;2024-02-28T01:33:57;4.50;99.90
56240;DHT22;42154;51.992;5.896;2024-02-28T01:36:23;4.60;99.90
56240;DHT22;42154;51.992;5.896;2024-02-28T01:38:49;4.60;99.90
56240;DHT22;42154;51.992;5.896;2024-02-28T01:41:14;4.60;99.90
56240;DHT22;42154;51.992;5.896;2024-02-28T01:43:41;4.60;99.90
56240;DHT22;42154;51.992;5.896;2024-02-28T01:48:48;4.50;99.90
56240;DHT22;42154;51.992;5.896;2024-02-28T01:51:13;4.50;99.90
56240;DHT22;42154;51.992;5.896;2024-02-28T01:53:39;4.50;99.90
56240;DHT22;42154;51.992;5.896;2024-02-28T01:56:06;4.50;99.90
56240;DHT22;42154;51.992;5.896;2024-02-28T01:58:32;4.50;99.90
56240;DHT22;42154;51.992;5.896;2024-02-28T02:00:59;4.60;99.90
56240;DHT22;42154;51.992;5.896;2024-02-28T02:03:25;4.60;99.90
56240;DHT22;42154;51.992;5.896;2024-02-28T02:05:51;4.60;99.90
56240;DHT22;42154;51.992;5.896;2024-02-28T02:08:16;4.50;99.90
56240;DHT22;42154;51.992;5.896;2024-02-28T02:10:42;4.60;99.90
56240;DHT22;42154;51.992;5.896;2024-02-28T02:13:08;4.50;99.90
56240;DHT22;42154;51.992;5.896;2024-02-28T02:15:34;4.50;99.90
56240;DHT22;42154;51.992;5.896;2024-02-28T02:17:59;4.50;99.90
56240;DHT22;42154;51.992;5.896;2024-02-28T02:20:26;4.50;99.90
56240;DHT22;42154;51.992;5.896;2024-02-28T02:22:55;4.40;99.90
56240;DHT22;42154;51.992;5.896;2024-02-28T02:25:21;4.40;99.90
56240;DHT22;42154;51.992;5.896;2024-02-28T02:27:47;4.40;99.90
56240;DHT22;42154;51.992;5.896;2024-02-28T02:30:13;4.40;99.90
56240;DHT22;42154;51.992;5.896;2024-02-28T02:32:39;4.30;99.90
56240;DHT22;42154;51.992;5.896;2024-02-28T02:35:05;4.30;99.90
56240;DHT22;42154;51.992;5.896;2024-02-28T02:37:31;4.30;99.90
56240;DHT22;42154;51.992;5.896;2024-02-28T02:39:56;4.30;99.90
56240;DHT22;42154;51.992;5.896;2024-02-28T02:42:22;4.30;99.90
56240;DHT22;42154;51.992;5.896;2024-02-28T02:44:48;4.20;99.90
56240;DHT22;42154;51.992;5.896;2024-02-28T02:47:14;4.20;99.90
56240;DHT22;42154;51.992;5.896;2024-02-28T02:49:39;4.10;99.90
56240;DHT22;42154;51.992;5.896;2024-02-28T02:52:05;4.20;99.90
56240;DHT22;42154;51.992;5.896;2024-02-28T02:54:31;4.10;99.90
56240;DHT22;42154;51.992;5.896;2024-02-28T02:56:57;4.20;99.90
56240;DHT22;42154;51.992;5.896;2024-02-28T02:59:22;4.00;99.90
56240;DHT22;42154;51.992;5.896;2024-02-28T03:01:49;4.00;99.90
56240;DHT22;42154;51.992;5.896;2024-02-28T03:04:15;4.00;99.90
56240;DHT22;42154;51.992;5.896;2024-02-28T03:06:41;4.00;99.90
56240;DHT22;42154;51.992;5.896;2024-02-28T03:09:07;4.00;99.90
56240;DHT22;42154;51.992;5.896;2024-02-28T03:11:33;4.00;99.90
56240;DHT22;42154;51.992;5.896;2024-02-28T03:14:01;3.90;99.90
56240;DHT22;42154;51.992;5.896;2024-02-28T03:16:26;3.90;99.90
56240;DHT22;42154;51.992;5.896;2024-02-28T03:18:53;3.90;99.90
56240;DHT22;42154;51.992;5.896;2024-02-28T03:21:19;3.90;99.90
56240;DHT22;42154;51.992;5.896;2024-02-28T03:23:46;3.90;99.90
56240;DHT22;42154;51.992;5.896;2024-02-28T03:26:11;3.90;99.90
56240;DHT22;42154;51.992;5.896;2024-02-28T03:28:37;3.90;99.90
56240;DHT22;42154;51.992;5.896;2024-02-28T03:31:03;4.00;99.90
56240;DHT22;42154;51.992;5.896;2024-02-28T03:33:29;3.90;99.90
56240;DHT22;42154;51.992;5.896;2024-02-28T03:35:57;3.90;99.90
56240;DHT22;42154;51.992;5.896;2024-02-28T03:38:22;3.90;99.90
56240;DHT22;42154;51.992;5.896;2024-02-28T03:40:48;3.90;99.90
56240;DHT22;42154;51.992;5.896;2024-02-28T03:43:14;3.90;99.90
56240;DHT22;42154;51.992;5.896;2024-02-28T03:45:40;3.90;99.90
56240;DHT22;42154;51.992;5.896;2024-02-28T03:48:06;3.90;99.90
56240;DHT22;42154;51.992;5.896;2024-02-28T03:50:32;3.90;99.90
56240;DHT22;42154;51.992;5.896;2024-02-28T03:52:58;4.00;99.90
56240;DHT22;42154;51.992;5.896;2024-02-28T03:55:24;4.00;99.90
56240;DHT22;42154;51.992;5.896;2024-02-28T03:57:49;4.00;99.90
56240;DHT22;42154;51.992;5.896;2024-02-28T04:00:17;4.00;99.90
56240;DHT22;42154;51.992;5.896;2024-02-28T04:02:43;3.90;99.90
56240;DHT22;42154;51.992;5.896;2024-02-28T04:05:09;3.90;99.90
56240;DHT22;42154;51.992;5.896;2024-02-28T04:07:35;3.90;99.90
56240;DHT22;42154;51.992;5.896;2024-02-28T04:10:01;3.90;99.90
56240;DHT22;42154;51.992;5.896;2024-02-28T04:12:26;3.90;99.90
56240;DHT22;42154;51.992;5.896;2024-02-28T04:14:52;4.00;99.90
56240;DHT22;42154;51.992;5.896;2024-02-28T04:17:18;3.90;99.90
56240;DHT22;42154;51.992;5.896;2024-02-28T04:19:44;3.90;99.90
56240;DHT22;42154;51.992;5.896;2024-02-28T04:22:09;3.90;99.90
56240;DHT22;42154;51.992;5.896;2024-02-28T04:24:35;3.90;99.90
56240;DHT22;42154;51.992;5.896;2024-02-28T04:27:01;3.90;99.90
56240;DHT22;42154;51.992;5.896;2024-02-28T04:29:30;3.90;99.90
56240;DHT22;42154;51.992;5.896;2024-02-28T04:31:56;4.00;99.90
56240;DHT22;42154;51.992;5.896;2024-02-28T04:34:22;4.00;99.90
56240;DHT22;42154;51.992;5.896;2024-02-28T04:36:47;3.90;99.90
56240;DHT22;42154;51.992;5.896;2024-02-28T04:39:13;4.00;99.90
56240;DHT22;42154;51.992;5.896;2024-02-28T04:41:39;4.00;99.90
56240;DHT22;42154;51.992;5.896;2024-02-28T04:44:05;4.00;99.90
56240;DHT22;42154;51.992;5.896;2024-02-28T04:46:30;4.00;99.90
56240;DHT22;42154;51.992;5.896;2024-02-28T04:48:56;4.00;99.90
56240;DHT22;42154;51.992;5.896;2024-02-28T04:51:22;4.00;99.90
56240;DHT22;42154;51.992;5.896;2024-02-28T04:53:47;4.10;99.90
56240;DHT22;42154;51.992;5.896;2024-02-28T04:56:13;3.90;99.90
56240;DHT22;42154;51.992;5.896;2024-02-28T04:58:39;3.90;99.90
56240;DHT22;42154;51.992;5.896;2024-02-28T05:01:05;3.90;99.90
56240;DHT22;42154;51.992;5.896;2024-02-28T05:03:31;3.90;99.90
56240;DHT22;42154;51.992;5.896;2024-02-28T05:05:57;3.90;99.90
56240;DHT22;42154;51.992;5.896;2024-02-28T05:08:23;3.90;99.90
56240;DHT22;42154;51.992;5.896;2024-02-28T05:10:50;3.90;99.90
56240;DHT22;42154;51.992;5.896;2024-02-28T05:13:16;3.90;99.90
56240;DHT22;42154;51.992;5.896;2024-02-28T05:15:42;3.80;99.90
56240;DHT22;42154;51.992;5.896;2024-02-28T05:18:07;3.80;99.90
56240;DHT22;42154;51.992;5.896;2024-02-28T05:20:33;3.80;99.90
56240;DHT22;42154;51.992;5.896;2024-02-28T05:22:59;3.80;99.90
56240;DHT22;42154;51.992;5.896;2024-02-28T05:25:25;3.80;99.90
56240;DHT22;42154;51.992;5.896;2024-02-28T05:27:51;3.80;99.90
56240;DHT22;42154;51.992;5.896;2024-02-28T05:30:17;3.80;99.90
56240;DHT22;42154;51.992;5.896;2024-02-28T05:32:43;3.70;99.90
56240;DHT22;42154;51.992;5.896;2024-02-28T05:35:09;3.70;99.90
56240;DHT22;42154;51.992;5.896;2024-02-28T05:37:37;3.70;99.90
56240;DHT22;42154;51.992;5.896;2024-02-28T05:40:03;3.70;99.90
56240;DHT22;42154;51.992;5.896;2024-02-28T05:42:29;3.70;99.90
56240;DHT22;42154;51.992;5.896;2024-02-28T05:44:56;3.80;99.90
56240;DHT22;42154;51.992;5.896;2024-02-28T05:47:22;3.80;99.90
56240;DHT22;42154;51.992;5.896;2024-02-28T05:49:48;3.80;99.90
56240;DHT22;42154;51.992;5.896;2024-02-28T05:52:14;3.80;99.90
56240;DHT22;42154;51.992;5.896;2024-02-28T05:54:43;3.70;99.90
56240;DHT22;42154;51.992;5.896;2024-02-28T05:57:09;3.70;99.90
56240;DHT22;42154;51.992;5.896;2024-02-28T05:59:34;3.70;99.90
56240;DHT22;42154;51.992;5.896;2024-02-28T06:02:00;3.70;99.90
56240;DHT22;42154;51.992;5.896;2024-02-28T06:04:26;3.70;99.90
56240;DHT22;42154;51.992;5.896;2024-02-28T06:06:51;3.60;99.90
56240;DHT22;42154;51.992;5.896;2024-02-28T06:09:17;3.60;99.90
56240;DHT22;42154;51.992;5.896;2024-02-28T06:11:43;3.60;99.90
56240;DHT22;42154;51.992;5.896;2024-02-28T06:14:08;3.60;99.90
56240;DHT22;42154;51.992;5.896;2024-02-28T06:16:34;3.60;99.90
56240;DHT22;42154;51.992;5.896;2024-02-28T06:19:00;3.60;99.90
56240;DHT22;42154;51.992;5.896;2024-02-28T06:21:26;3.60;99.90
56240;DHT22;42154;51.992;5.896;2024-02-28T06:23:52;3.60;99.90
56240;DHT22;42154;51.992;5.896;2024-02-28T06:26:18;3.70;99.90
56240;DHT22;42154;51.992;5.896;2024-02-28T06:28:44;3.70;99.90
56240;DHT22;42154;51.992;5.896;2024-02-28T06:31:16;3.70;99.90
56240;DHT22;42154;51.992;5.896;2024-02-28T06:33:43;3.70;99.90
56240;DHT22;42154;51.992;5.896;2024-02-28T06:36:08;3.60;99.90
56240;DHT22;42154;51.992;5.896;2024-02-28T06:38:34;3.70;99.90
56240;DHT22;42154;51.992;5.896;2024-02-28T06:41:04;3.70;99.90
56240;DHT22;42154;51.992;5.896;2024-02-28T06:43:33;3.70;99.90
56240;DHT22;42154;51.992;5.896;2024-02-28T06:45:59;3.70;99.90
56240;DHT22;42154;51.992;5.896;2024-02-28T06:48:24;3.70;99.90
56240;DHT22;42154;51.992;5.896;2024-02-28T06:50:50;3.70;99.90
56240;DHT22;42154;51.992;5.896;2024-02-28T06:53:16;3.80;99.90
56240;DHT22;42154;51.992;5.896;2024-02-28T06:55:42;3.80;99.90
56240;DHT22;42154;51.992;5.896;2024-02-28T06:58:09;3.80;99.90
56240;DHT22;42154;51.992;5.896;2024-02-28T07:00:35;3.90;99.90
56240;DHT22;42154;51.992;5.896;2024-02-28T07:03:01;3.90;99.90
56240;DHT22;42154;51.992;5.896;2024-02-28T07:05:27;3.90;99.90
56240;DHT22;42154;51.992;5.896;2024-02-28T07:07:52;3.90;99.90
56240;DHT22;42154;51.992;5.896;2024-02-28T07:10:19;3.90;99.90
56240;DHT22;42154;51.992;5.896;2024-02-28T07:12:45;3.90;99.90
56240;DHT22;42154;51.992;5.896;2024-02-28T07:15:10;3.90;99.90
56240;DHT22;42154;51.992;5.896;2024-02-28T07:17:36;3.90;99.90
56240;DHT22;42154;51.992;5.896;2024-02-28T07:20:02;3.90;99.90
56240;DHT22;42154;51.992;5.896;2024-02-28T07:22:28;3.90;99.90
56240;DHT22;42154;51.992;5.896;2024-02-28T07:24:54;4.00;99.90
56240;DHT22;42154;51.992;5.896;2024-02-28T07:27:22;4.00;99.90
56240;DHT22;42154;51.992;5.896;2024-02-28T07:29:48;4.00;99.90
56240;DHT22;42154;51.992;5.896;2024-02-28T07:32:14;4.00;99.90
56240;DHT22;42154;51.992;5.896;2024-02-28T07:34:40;4.00;99.90
56240;DHT22;42154;51.992;5.896;2024-02-28T07:37:05;4.10;99.90
56240;DHT22;42154;51.992;5.896;2024-02-28T07:39:31;4.10;99.90
56240;DHT22;42154;51.992;5.896;2024-02-28T07:41:57;4.10;99.90
56240;DHT22;42154;51.992;5.896;2024-02-28T07:44:22;4.20;99.90
56240;DHT22;42154;51.992;5.896;2024-02-28T07:46:48;4.20;99.90
56240;DHT22;42154;51.992;5.896;2024-02-28T07:49:16;4.10;99.90
56240;DHT22;42154;51.992;5.896;2024-02-28T07:51:41;4.20;99.90
56240;DHT22;42154;51.992;5.896;2024-02-28T07:54:07;4.20;99.90
56240;DHT22;42154;51.992;5.896;2024-02-28T07:56:33;4.30;99.90
56240;DHT22;42154;51.992;5.896;2024-02-28T07:58:58;4.30;99.90
56240;DHT22;42154;51.992;5.896;2024-02-28T08:01:24;4.30;99.90
56240;DHT22;42154;51.992;5.896;2024-02-28T08:03:50;4.40;99.90
56240;DHT22;42154;51.992;5.896;2024-02-28T08:06:16;4.40;99.90
56240;DHT22;42154;51.992;5.896;2024-02-28T08:08:44;4.50;99.90
56240;DHT22;42154;51.992;5.896;2024-02-28T08:11:11;4.50;99.90
56240;DHT22;42154;51.992;5.896;2024-02-28T08:13:36;4.50;99.90
56240;DHT22;42154;51.992;5.896;2024-02-28T08:16:02;4.50;99.90
56240;DHT22;42154;51.992;5.896;2024-02-28T08:18:28;4.60;99.90
56240;DHT22;42154;51.992;5.896;2024-02-28T08:20:54;4.60;99.90
56240;DHT22;42154;51.992;5.896;2024-02-28T08:23:23;4.60;99.90
56240;DHT22;42154;51.992;5.896;2024-02-28T08:25:49;4.70;99.90
56240;DHT22;42154;51.992;5.896;2024-02-28T08:28:15;4.70;99.90
56240;DHT22;42154;51.992;5.896;2024-02-28T08:30:41;4.80;99.90
56240;DHT22;42154;51.992;5.896;2024-02-28T08:33:07;4.90;99.90
56240;DHT22;42154;51.992;5.896;2024-02-28T08:35:34;4.90;99.90
56240;DHT22;42154;51.992;5.896;2024-02-28T08:38:00;5.00;99.90
56240;DHT22;42154;51.992;5.896;2024-02-28T08:40:27;5.00;99.90
56240;DHT22;42154;51.992;5.896;2024-02-28T08:42:53;5.10;99.90
56240;DHT22;42154;51.992;5.896;2024-02-28T08:45:19;5.20;99.90
56240;DHT22;42154;51.992;5.896;2024-02-28T08:47:46;5.20;99.90
56240;DHT22;42154;51.992;5.896;2024-02-28T08:50:11;5.20;99.90
56240;DHT22;42154;51.992;5.896;2024-02-28T08:52:37;5.20;99.90
56240;DHT22;42154;51.992;5.896;2024-02-28T08:55:03;5.20;99.90
56240;DHT22;42154;51.992;5.896;2024-02-28T08:57:29;5.20;99.90
56240;DHT22;42154;51.992;5.896;2024-02-28T08:59:55;5.30;99.90
56240;DHT22;42154;51.992;5.896;2024-02-28T09:02:22;5.40;99.90
56240;DHT22;42154;51.992;5.896;2024-02-28T09:04:47;5.50;99.90
56240;DHT22;42154;51.992;5.896;2024-02-28T09:07:20;5.50;99.90
56240;DHT22;42154;51.992;5.896;2024-02-28T09:09:46;5.60;99.90
56240;DHT22;42154;51.992;5.896;2024-02-28T09:12:12;5.70;99.90
56240;DHT22;42154;51.992;5.896;2024-02-28T09:14:38;5.80;99.90
56240;DHT22;42154;51.992;5.896;2024-02-28T09:17:04;5.80;99.90
56240;DHT22;42154;51.992;5.896;2024-02-28T09:19:30;5.90;99.90
56240;DHT22;42154;51.992;5.896;2024-02-28T09:21:57;5.90;99.90
56240;DHT22;42154;51.992;5.896;2024-02-28T09:24:24;5.90;99.90
56240;DHT22;42154;51.992;5.896;2024-02-28T09:26:49;5.90;99.90
56240;DHT22;42154;51.992;5.896;2024-02-28T09:29:15;5.90;99.90
56240;DHT22;42154;51.992;5.896;2024-02-28T09:31:41;5.90;99.90
56240;DHT22;42154;51.992;5.896;2024-02-28T09:34:07;5.90;99.90
56240;DHT22;42154;51.992;5.896;2024-02-28T09:36:44;5.90;99.90
56240;DHT22;42154;51.992;5.896;2024-02-28T09:39:14;5.90;99.90
56240;DHT22;42154;51.992;5.896;2024-02-28T09:41:43;5.80;99.90
56240;DHT22;42154;51.992;5.896;2024-02-28T09:44:09;5.80;99.90
56240;DHT22;42154;51.992;5.896;2024-02-28T09:46:35;5.80;99.90
56240;DHT22;42154;51.992;5.896;2024-02-28T09:49:05;5.80;99.90
56240;DHT22;42154;51.992;5.896;2024-02-28T09:51:34;5.90;99.90
56240;DHT22;42154;51.992;5.896;2024-02-28T09:54:03;5.90;99.90
56240;DHT22;42154;51.992;5.896;2024-02-28T09:56:30;5.90;99.90
56240;DHT22;42154;51.992;5.896;2024-02-28T09:58:56;5.90;99.90
56240;DHT22;42154;51.992;5.896;2024-02-28T10:01:22;6.00;99.90
56240;DHT22;42154;51.992;5.896;2024-02-28T10:03:51;6.20;99.90
56240;DHT22;42154;51.992;5.896;2024-02-28T10:06:21;6.30;99.90
56240;DHT22;42154;51.992;5.896;2024-02-28T10:08:46;6.40;99.90
56240;DHT22;42154;51.992;5.896;2024-02-28T10:11:22;6.50;99.90
56240;DHT22;42154;51.992;5.896;2024-02-28T10:13:49;6.50;99.90
56240;DHT22;42154;51.992;5.896;2024-02-28T10:16:15;6.50;99.90
56240;DHT22;42154;51.992;5.896;2024-02-28T10:18:45;6.50;99.90
56240;DHT22;42154;51.992;5.896;2024-02-28T10:21:14;6.60;99.90
56240;DHT22;42154;51.992;5.896;2024-02-28T10:23:44;6.70;99.90
56240;DHT22;42154;51.992;5.896;2024-02-28T10:26:10;6.80;99.90
56240;DHT22;42154;51.992;5.896;2024-02-28T10:28:37;6.80;99.90
56240;DHT22;42154;51.992;5.896;2024-02-28T10:31:04;6.90;99.90
56240;DHT22;42154;51.992;5.896;2024-02-28T10:33:31;6.90;99.90
56240;DHT22;42154;51.992;5.896;2024-02-28T10:35:59;7.00;99.90
56240;DHT22;42154;51.992;5.896;2024-02-28T10:38:26;7.10;99.90
56240;DHT22;42154;51.992;5.896;2024-02-28T10:40:53;7.10;99.90
56240;DHT22;42154;51.992;5.896;2024-02-28T10:43:19;7.20;99.90
56240;DHT22;42154;51.992;5.896;2024-02-28T10:45:46;7.20;99.90
56240;DHT22;42154;51.992;5.896;2024-02-28T10:48:14;7.20;99.90
56240;DHT22;42154;51.992;5.896;2024-02-28T10:50:43;7.30;99.90
56240;DHT22;42154;51.992;5.896;2024-02-28T10:53:13;7.40;99.90
56240;DHT22;42154;51.992;5.896;2024-02-28T10:55:40;7.50;99.90
56240;DHT22;42154;51.992;5.896;2024-02-28T10:58:08;7.50;99.90
56240;DHT22;42154;51.992;5.896;2024-02-28T11:00:39;7.50;99.90
56240;DHT22;42154;51.992;5.896;2024-02-28T11:03:08;7.50;99.90
56240;DHT22;42154;51.992;5.896;2024-02-28T11:05:38;7.50;99.90
56240;DHT22;42154;51.992;5.896;2024-02-28T11:08:11;7.50;99.90
56240;DHT22;42154;51.992;5.896;2024-02-28T11:10:43;7.50;99.90
56240;DHT22;42154;51.992;5.896;2024-02-28T11:13:21;7.60;99.90
56240;DHT22;42154;51.992;5.896;2024-02-28T11:15:47;7.60;99.90
56240;DHT22;42154;51.992;5.896;2024-02-28T11:18:13;7.60;99.90
56240;DHT22;42154;51.992;5.896;2024-02-28T11:20:38;7.70;99.90
56240;DHT22;42154;51.992;5.896;2024-02-28T11:23:08;7.80;99.90
56240;DHT22;42154;51.992;5.896;2024-02-28T11:25:35;8.00;99.90
56240;DHT22;42154;51.992;5.896;2024-02-28T11:28:01;8.00;99.90
56240;DHT22;42154;51.992;5.896;2024-02-28T11:30:26;8.10;99.90
56240;DHT22;42154;51.992;5.896;2024-02-28T11:32:53;8.20;99.90
56240;DHT22;42154;51.992;5.896;2024-02-28T11:35:19;8.30;99.90
56240;DHT22;42154;51.992;5.896;2024-02-28T11:37:46;8.30;99.90
56240;DHT22;42154;51.992;5.896;2024-02-28T11:40:15;8.30;99.90
56240;DHT22;42154;51.992;5.896;2024-02-28T11:42:40;8.30;99.90
56240;DHT22;42154;51.992;5.896;2024-02-28T11:45:10;8.30;99.90
56240;DHT22;42154;51.992;5.896;2024-02-28T11:47:42;8.30;99.90
56240;DHT22;42154;51.992;5.896;2024-02-28T11:50:08;8.30;99.90
56240;DHT22;42154;51.992;5.896;2024-02-28T11:52:34;8.20;99.90
56240;DHT22;42154;51.992;5.896;2024-02-28T11:55:00;8.20;99.90
56240;DHT22;42154;51.992;5.896;2024-02-28T11:57:26;8.30;99.90
56240;DHT22;42154;51.992;5.896;2024-02-28T11:59:51;8.30;99.90
56240;DHT22;42154;51.992;5.896;2024-02-28T12:02:18;8.30;99.90
56240;DHT22;42154;51.992;5.896;2024-02-28T12:04:44;8.30;99.90
56240;DHT22;42154;51.992;5.896;2024-02-28T12:07:11;8.40;99.90
56240;DHT22;42154;51.992;5.896;2024-02-28T12:09:37;8.40;99.90
56240;DHT22;42154;51.992;5.896;2024-02-28T12:12:04;8.50;99.90
56240;DHT22;42154;51.992;5.896;2024-02-28T12:14:35;8.60;99.90
56240;DHT22;42154;51.992;5.896;2024-02-28T12:17:02;8.70;99.90
56240;DHT22;42154;51.992;5.896;2024-02-28T12:19:28;8.70;99.90
56240;DHT22;42154;51.992;5.896;2024-02-28T12:21:54;8.80;99.90
56240;DHT22;42154;51.992;5.896;2024-02-28T12:24:21;8.80;99.90
56240;DHT22;42154;51.992;5.896;2024-02-28T12:26:46;8.90;99.90
56240;DHT22;42154;51.992;5.896;2024-02-28T12:29:12;8.90;99.90
56240;DHT22;42154;51.992;5.896;2024-02-28T12:31:38;8.90;99.90
56240;DHT22;42154;51.992;5.896;2024-02-28T12:34:04;8.90;99.90
56240;DHT22;42154;51.992;5.896;2024-02-28T12:36:30;8.80;99.90
56240;DHT22;42154;51.992;5.896;2024-02-28T12:38:58;8.70;99.90
56240;DHT22;42154;51.992;5.896;2024-02-28T12:41:28;8.80;99.90
56240;DHT22;42154;51.992;5.896;2024-02-28T12:43:54;8.80;99.90
56240;DHT22;42154;51.992;5.896;2024-02-28T12:46:20;8.80;99.90
56240;DHT22;42154;51.992;5.896;2024-02-28T12:48:45;8.90;99.90
56240;DHT22;42154;51.992;5.896;2024-02-28T12:51:41;9.10;99.90
56240;DHT22;42154;51.992;5.896;2024-02-28T12:54:08;9.10;99.90
56240;DHT22;42154;51.992;5.896;2024-02-28T12:56:37;9.20;99.90
56240;DHT22;42154;51.992;5.896;2024-02-28T12:59:04;9.30;99.90
56240;DHT22;42154;51.992;5.896;2024-02-28T13:01:31;9.30;99.90
56240;DHT22;42154;51.992;5.896;2024-02-28T13:03:57;9.40;99.90
56240;DHT22;42154;51.992;5.896;2024-02-28T13:06:23;9.40;99.90
56240;DHT22;42154;51.992;5.896;2024-02-28T13:08:48;9.40;99.90
56240;DHT22;42154;51.992;5.896;2024-02-28T13:11:18;9.40;99.90
56240;DHT22;42154;51.992;5.896;2024-02-28T13:13:45;9.40;99.90
56240;DHT22;42154;51.992;5.896;2024-02-28T13:16:11;9.50;99.90
56240;DHT22;42154;51.992;5.896;2024-02-28T13:18:36;9.50;99.90
56240;DHT22;42154;51.992;5.896;2024-02-28T13:21:03;9.50;99.90
56240;DHT22;42154;51.992;5.896;2024-02-28T13:23:30;9.50;99.90
56240;DHT22;42154;51.992;5.896;2024-02-28T13:25:57;9.50;99.90
56240;DHT22;42154;51.992;5.896;2024-02-28T13:28:23;9.60;99.90
56240;DHT22;42154;51.992;5.896;2024-02-28T13:30:59;9.60;99.90
56240;DHT22;42154;51.992;5.896;2024-02-28T13:33:26;9.70;99.90
56240;DHT22;42154;51.992;5.896;2024-02-28T13:35:52;9.70;99.90
56240;DHT22;42154;51.992;5.896;2024-02-28T13:38:18;9.60;99.90
56240;DHT22;42154;51.992;5.896;2024-02-28T13:40:45;9.60;99.90
56240;DHT22;42154;51.992;5.896;2024-02-28T13:43:11;9.60;99.90
56240;DHT22;42154;51.992;5.896;2024-02-28T13:45:48;9.60;99.90
56240;DHT22;42154;51.992;5.896;2024-02-28T13:48:23;9.60;99.90
56240;DHT22;42154;51.992;5.896;2024-02-28T13:50:56;9.50;99.90
56240;DHT22;42154;51.992;5.896;2024-02-28T13:53:22;9.50;99.90
56240;DHT22;42154;51.992;5.896;2024-02-28T13:55:50;9.50;99.90
56240;DHT22;42154;51.992;5.896;2024-02-28T13:58:16;9.50;99.90
56240;DHT22;42154;51.992;5.896;2024-02-28T14:00:45;9.60;99.90
56240;DHT22;42154;51.992;5.896;2024-02-28T14:03:12;9.60;99.90
56240;DHT22;42154;51.992;5.896;2024-02-28T14:05:38;9.60;99.90
56240;DHT22;42154;51.992;5.896;2024-02-28T14:08:04;9.60;99.90
56240;DHT22;42154;51.992;5.896;2024-02-28T14:10:32;9.60;99.90
56240;DHT22;42154;51.992;5.896;2024-02-28T14:12:58;9.70;99.90
56240;DHT22;42154;51.992;5.896;2024-02-28T14:15:24;9.70;99.90
56240;DHT22;42154;51.992;5.896;2024-02-28T14:17:51;9.70;99.90
56240;DHT22;42154;51.992;5.896;2024-02-28T14:20:17;9.70;99.90
56240;DHT22;42154;51.992;5.896;2024-02-28T14:22:43;9.70;99.90
56240;DHT22;42154;51.992;5.896;2024-02-28T14:25:16;9.70;99.90
56240;DHT22;42154;51.992;5.896;2024-02-28T14:27:44;9.70;99.90
56240;DHT22;42154;51.992;5.896;2024-02-28T14:30:11;9.70;99.90
56240;DHT22;42154;51.992;5.896;2024-02-28T14:32:38;9.70;99.90
56240;DHT22;42154;51.992;5.896;2024-02-28T14:35:05;9.70;99.90
56240;DHT22;42154;51.992;5.896;2024-02-28T14:37:32;9.70;99.90
56240;DHT22;42154;51.992;5.896;2024-02-28T14:40:00;9.60;99.90
56240;DHT22;42154;51.992;5.896;2024-02-28T14:42:42;9.60;99.90
56240;DHT22;42154;51.992;5.896;2024-02-28T14:45:12;9.60;99.90
56240;DHT22;42154;51.992;5.896;2024-02-28T14:47:40;9.60;99.90
56240;DHT22;42154;51.992;5.896;2024-02-28T14:50:07;9.70;99.90
56240;DHT22;42154;51.992;5.896;2024-02-28T14:52:40;9.80;99.90
56240;DHT22;42154;51.992;5.896;2024-02-28T14:55:10;9.80;99.90
56240;DHT22;42154;51.992;5.896;2024-02-28T14:57:36;9.80;99.90
56240;DHT22;42154;51.992;5.896;2024-02-28T15:00:03;9.80;99.90
56240;DHT22;42154;51.992;5.896;2024-02-28T15:02:37;9.80;99.90
56240;DHT22;42154;51.992;5.896;2024-02-28T15:05:03;9.70;99.90
56240;DHT22;42154;51.992;5.896;2024-02-28T15:07:35;9.70;99.90
56240;DHT22;42154;51.992;5.896;2024-02-28T15:10:07;9.60;99.90
56240;DHT22;42154;51.992;5.896;2024-02-28T15:12:33;9.60;99.90
56240;DHT22;42154;51.992;5.896;2024-02-28T15:15:03;9.60;99.90
56240;DHT22;42154;51.992;5.896;2024-02-28T15:17:32;9.50;99.90
56240;DHT22;42154;51.992;5.896;2024-02-28T15:19:59;9.50;99.90
56240;DHT22;42154;51.992;5.896;2024-02-28T15:22:28;9.50;99.90
56240;DHT22;42154;51.992;5.896;2024-02-28T15:24:55;9.50;99.90
56240;DHT22;42154;51.992;5.896;2024-02-28T15:27:21;9.50;99.90
56240;DHT22;42154;51.992;5.896;2024-02-28T15:29:47;9.50;99.90
56240;DHT22;42154;51.992;5.896;2024-02-28T15:32:13;9.60;99.90
56240;DHT22;42154;51.992;5.896;2024-02-28T15:34:39;9.60;99.90
56240;DHT22;42154;51.992;5.896;2024-02-28T15:37:10;9.60;99.90
56240;DHT22;42154;51.992;5.896;2024-02-28T15:39:37;9.60;99.90
56240;DHT22;42154;51.992;5.896;2024-02-28T15:42:02;9.60;99.90
56240;DHT22;42154;51.992;5.896;2024-02-28T15:44:28;9.60;99.90